Terminal Aerodrome Forecast
Issued by NWS

Home | Current Version | Previous Version | Text Only | Print | Product List | Glossary On
Versions: 1 2 3 4 5 6 7 8 9 10 11 12 13 14 15 16 17 18 19 20
000
FTUS43 KILX 272326
TAFCMI
TAF
KCMI 272326Z 2800/2824 12005KT P6SM FEW045 SCT200
     FM281000 15006KT 4SM BR BKN030
     FM281500 21007KT P6SM BKN040
     FM282000 28012KT P6SM BKN035
     FM282300 30011KT P6SM SCT070=

USA.gov is the U.S. government's official web portal to all federal, state and local government web resources and services.